Time;durP1;ratioP1;P1;durP2;ratioP2;P2;SDS_P1;SDS_P2;PMS_P1;PMS_P2;Temp;Humidity;BMP_temperature;BMP_pressure;BME280_temperature;BME280_humidity;BME280_pressure;Samples;Min_cycle;Max_cycle;Signal;HPM_P1;HPM_P2
2021/06/06 12:46:49;;;;;;;24.40;21.90;;;;;;;22.14;55.74;100975.31;5133975;27;20574;-67
2021/06/06 12:49:16;;;;;;;22.70;20.40;;;;;;;21.99;56.20;100980.03;5098477;28;20469;-67
2021/06/06 12:51:47;;;;;;;25.20;21.67;;;;;;;21.44;56.79;100982.47;5105481;28;20985;-66
2021/06/06 12:54:17;;;;;;;24.23;21.80;;;;;;;21.44;57.23;100977.03;5107798;28;20431;-67
2021/06/06 12:56:44;;;;;;;25.87;23.10;;;;;;;21.18;57.74;100981.16;5111435;28;20541;-67
2021/06/06 12:59:13;;;;;;;28.33;22.87;;;;;;;21.71;56.83;100974.56;5079182;28;20554;-67
2021/06/06 13:01:40;;;;;;;24.40;21.80;;;;;;;21.77;56.25;100971.91;5115094;27;20625;-67
2021/06/06 13:04:23;;;;;;;25.63;22.97;;;;;;;22.11;56.84;100978.44;5119220;28;20488;-67
2021/06/06 13:06:49;;;;;;;24.60;22.00;;;;;;;22.24;54.90;100974.13;5093140;28;20501;-66
2021/06/06 13:09:26;;;;;;;24.70;21.63;;;;;;;22.49;55.00;100978.06;5097514;28;20438;-67
2021/06/06 13:11:55;;;;;;;20.20;18.27;;;;;;;22.07;55.52;100970.88;5112290;28;20482;-67
2021/06/06 13:14:26;;;;;;;20.00;17.90;;;;;;;21.87;55.67;100968.00;5119083;28;20484;-67
2021/06/06 13:17:02;;;;;;;18.83;16.43;;;;;;;21.70;56.50;100964.72;5116718;28;20498;-67
2021/06/06 13:19:32;;;;;;;18.30;16.40;;;;;;;21.38;56.84;100975.06;5119246;28;20532;-67
2021/06/06 13:22:12;;;;;;;16.50;14.53;;;;;;;20.87;57.55;100974.13;5117999;28;20469;-67
2021/06/06 13:24:41;;;;;;;15.93;13.67;;;;;;;20.74;58.40;100978.53;5117531;28;20489;-67
2021/06/06 13:27:12;;;;;;;17.37;15.47;;;;;;;20.73;59.05;100982.28;5117439;28;20500;-67
2021/06/06 13:29:40;;;;;;;17.33;15.53;;;;;;;21.42;58.58;100984.53;5118663;28;20490;-67
2021/06/06 13:32:11;;;;;;;16.50;14.13;;;;;;;21.30;57.80;100970.63;5116559;28;20550;-67
2021/06/06 13:34:39;;;;;;;14.47;12.93;;;;;;;20.81;58.82;100980.28;5118377;28;20434;-67
2021/06/06 13:37:06;;;;;;;15.43;13.73;;;;;;;20.94;58.52;100963.31;5116928;28;20485;-67
2021/06/06 13:39:34;;;;;;;17.33;13.67;;;;;;;20.66;59.63;100972.19;5117679;28;20427;-66
2021/06/06 13:42:02;;;;;;;17.27;15.20;;;;;;;21.10;58.40;100977.72;5117475;28;20553;-66
2021/06/06 13:44:29;;;;;;;17.10;15.10;;;;;;;21.27;58.27;100979.16;5118654;28;20452;-66
2021/06/06 13:46:56;;;;;;;17.43;15.23;;;;;;;21.22;57.86;100985.16;5115854;27;20494;-67
2021/06/06 13:49:23;;;;;;;21.40;17.67;;;;;;;20.93;58.45;100980.66;5118263;28;20435;-67
2021/06/06 13:51:50;;;;;;;19.10;17.10;;;;;;;20.81;59.32;100976.75;5117570;28;20504;-67
2021/06/06 13:54:16;;;;;;;22.00;18.43;;;;;;;20.73;59.52;100980.44;5116957;28;20973;-67
2021/06/06 13:56:43;;;;;;;21.60;18.37;;;;;;;20.55;59.93;100991.63;5111203;28;20558;-67
2021/06/06 13:59:09;;;;;;;20.00;18.00;;;;;;;20.59;59.83;100989.38;5104904;28;20478;-67
2021/06/06 14:01:37;;;;;;;20.03;17.70;;;;;;;20.75;59.84;100991.94;5102831;28;20514;-67
2021/06/06 14:04:04;;;;;;;20.10;17.40;;;;;;;20.60;59.63;100996.50;5105397;28;20427;-67
2021/06/06 14:06:30;;;;;;;22.40;18.90;;;;;;;19.93;61.53;100990.94;5104093;28;20498;-67
2021/06/06 14:08:58;;;;;;;22.83;18.57;;;;;;;19.93;61.85;100996.38;5102460;28;20592;-67
2021/06/06 14:11:29;;;;;;;21.57;18.83;;;;;;;20.18;61.48;101003.44;5103181;28;20504;-67
2021/06/06 14:13:55;;;;;;;22.50;19.27;;;;;;;20.17;61.87;101005.28;5104727;28;20507;-67
2021/06/06 14:16:25;;;;;;;26.30;20.67;;;;;;;20.11;61.34;101009.59;5101913;28;20502;-67
2021/06/06 14:18:52;;;;;;;22.00;18.50;;;;;;;20.21;61.13;101003.91;5103757;28;20915;-67
2021/06/06 14:21:21;;;;;;;21.57;17.63;;;;;;;20.56;60.72;101009.63;5093060;28;20538;-67
2021/06/06 14:23:48;;;;;;;24.30;19.10;;;;;;;20.08;61.68;101009.13;5082850;28;20501;-67
2021/06/06 14:26:15;;;;;;;22.50;19.93;;;;;;;20.16;61.85;101011.75;5092188;28;20509;-68
2021/06/06 14:28:42;;;;;;;25.30;20.20;;;;;;;20.10;61.19;101016.06;5103118;28;20609;-67
2021/06/06 14:31:08;;;;;;;23.43;19.00;;;;;;;20.44;60.91;101011.97;5101091;28;20960;-67
2021/06/06 14:33:34;;;;;;;21.30;19.00;;;;;;;20.12;61.67;101005.88;5083209;28;20455;-67
2021/06/06 14:36:02;;;;;;;21.40;19.10;;;;;;;20.48;60.77;101009.72;5079794;28;20693;-67
2021/06/06 14:38:30;;;;;;;22.53;18.07;;;;;;;20.84;59.75;101003.56;5081687;28;20529;-67
2021/06/06 14:40:59;;;;;;;23.80;19.07;;;;;;;21.21;58.43;101009.84;5081962;28;20475;-67
2021/06/06 14:43:27;;;;;;;21.57;18.03;;;;;;;21.90;57.08;101005.72;5083227;28;20428;-68
2021/06/06 14:45:54;;;;;;;20.50;17.30;;;;;;;21.42;57.21;101009.88;5080998;28;20487;-68
2021/06/06 14:48:24;;;;;;;23.20;18.17;;;;;;;21.54;57.22;101015.66;5102447;28;20459;-67
2021/06/06 14:50:50;;;;;;;22.93;18.50;;;;;;;20.95;58.99;101003.03;5102441;28;20475;-67
2021/06/06 14:53:18;;;;;;;25.53;19.40;;;;;;;20.71;59.79;101015.09;5102384;28;20432;-67
2021/06/06 14:55:45;;;;;;;25.40;20.73;;;;;;;19.99;61.69;101005.63;5101466;28;20483;-67
2021/06/06 14:58:12;;;;;;;24.27;19.60;;;;;;;19.85;62.34;101011.88;5102337;28;20696;-67
2021/06/06 15:00:41;;;;;;;27.90;21.50;;;;;;;19.86;62.58;101013.56;5102408;28;20507;-67
2021/06/06 15:03:09;;;;;;;24.63;20.77;;;;;;;19.90;62.91;101006.75;5102277;28;20837;-67
2021/06/06 15:05:36;;;;;;;25.80;20.60;;;;;;;19.41;64.64;101010.66;5102308;28;20852;-67
2021/06/06 15:08:03;;;;;;;26.23;21.80;;;;;;;19.44;64.15;101015.72;5101394;28;20451;-67
2021/06/06 15:10:29;;;;;;;28.20;22.53;;;;;;;19.54;63.94;101005.47;5094000;28;20540;-67
2021/06/06 15:12:55;;;;;;;25.03;21.33;;;;;;;19.28;64.83;101010.41;5083157;28;20440;-67
2021/06/06 15:15:24;;;;;;;25.43;21.47;;;;;;;19.28;65.26;101004.97;5081302;28;20466;-67
2021/06/06 15:17:52;;;;;;;26.87;21.00;;;;;;;19.51;64.48;101000.44;5097810;28;20447;-68
2021/06/06 15:20:21;;;;;;;28.33;20.93;;;;;;;18.99;65.91;101011.91;5102806;28;20513;-67
2021/06/06 15:22:48;;;;;;;23.40;20.00;;;;;;;19.10;66.31;100999.84;5090746;28;20448;-67
2021/06/06 15:25:17;;;;;;;26.33;20.80;;;;;;;19.21;66.07;100999.44;5083458;28;20511;-67
2021/06/06 15:27:44;;;;;;;24.90;19.73;;;;;;;19.31;65.21;101007.34;5102769;28;20581;-68
2021/06/06 15:30:13;;;;;;;24.07;20.37;;;;;;;19.56;64.92;101008.88;5101448;28;20459;-67
2021/06/06 15:32:39;;;;;;;26.40;21.17;;;;;;;19.11;65.87;101006.94;5102582;28;20447;-67
2021/06/06 15:35:10;;;;;;;21.67;19.23;;;;;;;19.27;65.76;101000.56;5102486;28;20454;-68
2021/06/06 15:37:37;;;;;;;23.23;18.67;;;;;;;19.16;65.74;101012.69;5061155;28;20455;-67
2021/06/06 15:40:04;;;;;;;22.03;18.80;;;;;;;19.14;66.42;101002.00;5062679;28;20472;-67
2021/06/06 15:42:30;;;;;;;28.00;20.90;;;;;;;19.43;65.43;101008.63;5077291;28;20555;-67
2021/06/06 15:44:56;;;;;;;24.20;19.33;;;;;;;19.36;65.35;101003.06;5080784;28;20499;-68
2021/06/06 15:47:22;;;;;;;21.60;18.37;;;;;;;19.42;65.43;101008.78;5080657;28;20499;-68
2021/06/06 15:49:49;;;;;;;24.67;18.53;;;;;;;19.12;65.90;101012.19;5081915;28;20446;-67
2021/06/06 15:52:19;;;;;;;22.00;18.83;;;;;;;19.49;64.85;101010.59;5080753;28;20476;-67
2021/06/06 15:54:46;;;;;;;21.60;19.20;;;;;;;19.28;65.63;100999.56;5063309;28;20445;-67
2021/06/06 15:57:12;;;;;;;22.03;19.00;;;;;;;19.29;65.94;101010.22;5061335;28;20507;-67
2021/06/06 15:59:38;;;;;;;22.70;18.73;;;;;;;19.47;65.17;101009.09;5061202;28;20961;-67
2021/06/06 16:02:07;;;;;;;25.37;19.97;;;;;;;19.65;65.20;101008.78;5070813;28;20571;-68
2021/06/06 16:04:33;;;;;;;23.50;18.90;;;;;;;19.51;64.70;101005.00;5082069;28;20440;-68
2021/06/06 16:07:00;;;;;;;19.90;17.60;;;;;;;19.31;64.76;101004.63;5080713;28;20474;-67
2021/06/06 16:09:27;;;;;;;21.77;19.00;;;;;;;19.56;65.13;100999.88;5081570;28;20455;-68
2021/06/06 16:11:54;;;;;;;19.87;15.40;;;;;;;19.42;64.93;100995.22;5079944;28;20479;-67
2021/06/06 16:14:20;;;;;;;24.07;17.90;;;;;;;19.34;65.25;100993.44;5080493;28;20436;-68
2021/06/06 16:16:47;;;;;;;21.50;17.83;;;;;;;18.79;67.25;101006.06;5077997;28;20473;-67
2021/06/06 16:19:13;;;;;;;21.63;16.77;;;;;;;18.90;66.77;101002.97;5065622;28;20861;-67
2021/06/06 16:21:39;;;;;;;22.03;16.10;;;;;;;19.20;66.57;100995.06;5073468;28;21175;-68
2021/06/06 16:24:07;;;;;;;20.13;16.27;;;;;;;19.14;66.55;100990.34;5081706;28;20507;-67
2021/06/06 16:26:34;;;;;;;20.03;17.73;;;;;;;18.88;67.26;100993.34;5080674;28;21057;-66
2021/06/06 16:29:01;;;;;;;21.50;16.93;;;;;;;18.60;67.67;100993.78;5080989;28;20451;-67
2021/06/06 16:31:28;;;;;;;21.90;18.60;;;;;;;18.87;67.53;100997.06;5081104;28;20487;-68
2021/06/06 16:33:54;;;;;;;25.60;18.00;;;;;;;18.81;67.33;100999.44;5081691;28;20460;-67
2021/06/06 16:36:22;;;;;;;22.03;17.57;;;;;;;18.79;67.28;100998.78;5071509;28;20477;-68
2021/06/06 16:38:48;;;;;;;18.53;16.30;;;;;;;18.69;67.58;100992.72;5081553;28;20455;-68
2021/06/06 16:41:14;;;;;;;21.97;17.97;;;;;;;18.63;67.77;100991.56;5088932;28;20534;-68
2021/06/06 16:43:42;;;;;;;23.10;17.47;;;;;;;18.89;67.21;100995.06;5096415;28;20456;-68
2021/06/06 16:46:08;;;;;;;21.40;16.63;;;;;;;18.81;67.27;100991.31;5089428;28;20479;-68
2021/06/06 16:48:35;;;;;;;22.47;18.30;;;;;;;18.63;67.84;100990.72;5100956;28;20447;-67
2021/06/06 16:51:01;;;;;;;22.90;16.80;;;;;;;18.68;67.84;100991.06;5092485;28;20472;-67
2021/06/06 16:53:27;;;;;;;20.40;15.53;;;;;;;18.70;67.56;100990.88;5080758;28;20471;-68
2021/06/06 16:55:55;;;;;;;20.10;17.60;;;;;;;18.76;67.22;100990.16;5087049;28;20565;-67
2021/06/06 16:58:23;;;;;;;18.80;16.00;;;;;;;18.68;67.96;100999.19;5097160;28;20608;-71
2021/06/06 17:00:52;;;;;;;25.90;18.17;;;;;;;18.75;67.84;100999.31;5088522;28;20470;-75
2021/06/06 17:03:21;;;;;;;21.13;17.17;;;;;;;18.72;67.98;100999.66;5101056;28;20447;-73
2021/06/06 17:05:47;;;;;;;21.90;17.23;;;;;;;18.76;67.55;101001.81;5088444;28;20512;-71
2021/06/06 17:08:14;;;;;;;18.77;16.70;;;;;;;19.16;66.35;101001.84;5079994;28;20448;-75
2021/06/06 17:10:41;;;;;;;20.23;16.47;;;;;;;19.01;67.00;101001.78;5077517;28;20581;-72
2021/06/06 17:13:09;;;;;;;20.80;18.20;;;;;;;19.10;66.50;101002.56;5064747;28;20436;-73
2021/06/06 17:15:39;;;;;;;21.13;17.87;;;;;;;19.16;65.92;100997.25;5077772;28;20468;-71
2021/06/06 17:18:07;;;;;;;21.13;16.33;;;;;;;18.79;67.69;101003.34;5078502;28;20482;-74
2021/06/06 17:20:34;;;;;;;20.97;16.63;;;;;;;18.65;68.09;100996.81;5080087;28;20496;-72
2021/06/06 17:23:00;;;;;;;19.53;15.67;;;;;;;18.61;67.88;100998.19;5079239;28;20468;-75
2021/06/06 17:25:29;;;;;;;21.27;17.07;;;;;;;18.86;67.66;100996.25;5078018;28;20468;-75
2021/06/06 17:27:55;;;;;;;20.50;16.50;;;;;;;18.77;67.66;101006.25;5078274;28;20469;-76
2021/06/06 17:53:19;;;;;;;27.77;19.67;;;;;;;19.06;66.42;100993.94;5119833;27;20568;-74
2021/06/06 17:55:48;;;;;;;21.40;18.77;;;;;;;19.11;66.35;100993.41;5086144;28;20472;-74
2021/06/06 17:58:17;;;;;;;19.60;16.70;;;;;;;18.99;66.79;100993.81;5066102;28;20459;-73
2021/06/06 18:00:45;;;;;;;24.60;18.07;;;;;;;18.87;67.15;101000.66;5062686;28;20471;-73
2021/06/06 18:03:11;;;;;;;21.60;19.30;;;;;;;18.69;67.47;100995.44;5059081;28;21037;-73
2021/06/06 18:05:38;;;;;;;22.70;18.70;;;;;;;18.74;67.89;101000.31;5053179;28;20472;-74
2021/06/06 18:08:05;;;;;;;25.37;19.40;;;;;;;18.54;68.20;101000.75;5057274;28;20525;-74
2021/06/06 18:10:35;;;;;;;21.87;17.90;;;;;;;18.84;67.59;101002.88;5058158;28;20483;-73
2021/06/06 18:13:02;;;;;;;22.63;19.40;;;;;;;18.71;68.23;101009.63;5058885;28;20456;-74
2021/06/06 18:15:29;;;;;;;24.13;19.07;;;;;;;18.69;68.06;101013.56;5057648;28;20465;-74
2021/06/06 18:17:56;;;;;;;22.67;20.07;;;;;;;18.66;68.03;101006.59;5054004;28;20811;-74
2021/06/06 18:20:24;;;;;;;25.03;20.93;;;;;;;18.73;68.21;101006.75;5057589;28;20448;-75
2021/06/06 18:22:51;;;;;;;22.50;19.13;;;;;;;18.86;67.80;101009.78;5055288;28;20456;-75
2021/06/06 18:25:20;;;;;;;25.20;20.23;;;;;;;18.83;68.02;101010.13;5057448;28;20460;-74
2021/06/06 18:27:48;;;;;;;25.47;20.60;;;;;;;18.65;68.29;101014.94;5057278;28;20453;-73
2021/06/06 18:30:15;;;;;;;28.57;20.47;;;;;;;18.53;68.80;101009.03;5057926;28;20527;-73
2021/06/06 18:32:42;;;;;;;24.37;21.37;;;;;;;18.65;68.25;101009.53;5059210;28;20446;-72
2021/06/06 18:35:09;;;;;;;24.40;19.53;;;;;;;18.67;68.43;101011.00;5055996;28;20920;-73
2021/06/06 18:37:36;;;;;;;24.03;20.57;;;;;;;18.61;68.25;101009.03;5057946;28;20951;-74
2021/06/06 18:40:04;;;;;;;26.27;21.30;;;;;;;18.52;68.51;101005.50;5069267;28;20460;-74
2021/06/06 18:42:31;;;;;;;25.53;20.47;;;;;;;18.53;68.53;101009.03;5057695;28;20480;-73
2021/06/06 18:44:58;;;;;;;26.03;20.00;;;;;;;18.43;68.63;101011.94;5058155;28;20457;-73
2021/06/06 18:47:25;;;;;;;25.70;21.97;;;;;;;18.33;68.93;101003.16;5053037;28;21009;-73
2021/06/06 18:49:52;;;;;;;28.27;20.57;;;;;;;18.52;68.93;101010.06;5054642;28;20515;-73
2021/06/06 18:52:19;;;;;;;27.30;21.87;;;;;;;18.44;68.97;101010.94;5056132;28;20844;-73
2021/06/06 18:54:46;;;;;;;28.97;21.30;;;;;;;18.51;68.82;101006.50;5055660;28;20487;-73
2021/06/06 18:57:13;;;;;;;23.83;19.90;;;;;;;18.62;68.22;101011.53;5055338;28;20480;-74
2021/06/06 18:59:39;;;;;;;23.47;20.17;;;;;;;18.55;68.59;101015.13;5056350;28;20445;-73
2021/06/06 19:02:08;;;;;;;27.43;21.67;;;;;;;18.74;67.97;101028.25;5046180;28;20981;-74
2021/06/06 19:04:35;;;;;;;25.50;20.73;;;;;;;18.81;67.65;101022.97;5021699;28;20435;-74
2021/06/06 19:07:02;;;;;;;27.13;22.57;;;;;;;18.67;67.89;101024.56;5041417;28;20856;-74
2021/06/06 19:09:28;;;;;;;27.37;20.63;;;;;;;18.67;67.92;101024.56;5042366;28;20446;-74
2021/06/06 19:11:56;;;;;;;24.37;20.47;;;;;;;18.64;67.98;101022.19;5040875;28;20839;-74
2021/06/06 19:14:24;;;;;;;23.90;20.30;;;;;;;18.29;69.26;101034.31;5040164;28;20810;-73
2021/06/06 19:16:50;;;;;;;28.10;22.13;;;;;;;18.26;69.27;101030.06;5030556;28;20528;-73
2021/06/06 19:19:18;;;;;;;25.40;21.40;;;;;;;18.41;68.95;101022.94;5035438;28;20453;-73
2021/06/06 19:21:47;;;;;;;26.87;21.60;;;;;;;18.38;69.07;101026.00;5034926;28;20564;-73
2021/06/06 19:24:16;;;;;;;28.43;22.33;;;;;;;18.43;68.97;101034.44;5031850;28;21552;-73
2021/06/06 19:26:43;;;;;;;26.37;20.20;;;;;;;18.47;68.57;101031.38;5029471;28;20489;-73
2021/06/06 19:29:10;;;;;;;28.00;21.97;;;;;;;18.52;68.46;101038.00;5039206;28;20468;-73
2021/06/06 19:31:37;;;;;;;29.37;22.17;;;;;;;18.54;68.82;101035.97;5038983;28;20478;-72
2021/06/06 19:34:03;;;;;;;26.43;21.23;;;;;;;18.56;68.43;101033.91;5031029;28;20445;-73
2021/06/06 19:36:31;;;;;;;26.20;21.20;;;;;;;18.65;68.30;101044.72;5038925;28;20986;-73
2021/06/06 19:38:58;;;;;;;26.40;22.00;;;;;;;18.57;68.38;101041.00;5028867;28;20453;-73
2021/06/06 19:41:26;;;;;;;26.07;22.10;;;;;;;18.57;68.36;101051.00;5034695;28;20478;-73
2021/06/06 19:43:53;;;;;;;25.57;21.83;;;;;;;18.58;68.55;101053.53;5043388;28;20789;-73
2021/06/06 19:46:23;;;;;;;27.30;21.80;;;;;;;18.67;68.18;101057.06;5022070;28;20474;-72
2021/06/06 19:48:50;;;;;;;25.63;20.87;;;;;;;18.53;68.90;101049.66;5031758;28;20458;-73
2021/06/06 19:51:16;;;;;;;24.67;21.10;;;;;;;18.53;68.55;101052.38;5041867;28;20477;-73
2021/06/06 19:53:44;;;;;;;29.43;21.77;;;;;;;18.58;68.62;101055.41;5039810;28;20470;-73
2021/06/06 19:56:13;;;;;;;28.17;23.20;;;;;;;18.13;69.83;101056.84;5031569;28;20470;-73
2021/06/06 19:58:40;;;;;;;30.23;21.90;;;;;;;17.96;70.55;101053.28;5031415;28;20465;-72
2021/06/06 20:01:08;;;;;;;28.57;23.17;;;;;;;18.15;69.89;101052.94;5034268;28;20485;-73
2021/06/06 20:03:38;;;;;;;27.23;22.17;;;;;;;18.10;70.22;101049.88;5039762;28;20449;-73
2021/06/06 20:06:05;;;;;;;29.20;23.10;;;;;;;18.27;69.77;101061.56;5040395;28;20492;-73
2021/06/06 20:08:34;;;;;;;30.80;22.97;;;;;;;18.24;69.57;101061.88;5038222;28;20457;-73
2021/06/06 20:11:05;;;;;;;25.93;21.60;;;;;;;18.13;70.19;101059.53;5037862;28;20539;-73
2021/06/06 20:13:33;;;;;;;27.10;21.50;;;;;;;18.21;69.71;101056.81;5041170;28;20484;-73
2021/06/06 20:16:03;;;;;;;24.33;21.27;;;;;;;18.17;69.96;101056.31;5040312;28;20470;-73
2021/06/06 20:18:30;;;;;;;27.83;22.53;;;;;;;17.98;70.23;101056.66;5040639;28;20467;-72
2021/06/06 20:20:57;;;;;;;25.07;21.20;;;;;;;18.13;70.21;101062.25;5039293;28;20527;-73
2021/06/06 20:23:26;;;;;;;24.10;21.50;;;;;;;18.12;70.32;101063.25;5037257;28;20878;-73
2021/06/06 20:25:53;;;;;;;25.93;22.47;;;;;;;18.11;70.21;101057.00;5036035;28;20529;-73
2021/06/06 20:28:23;;;;;;;27.73;22.47;;;;;;;18.03;70.28;101057.84;5020517;28;20450;-73
2021/06/06 20:30:50;;;;;;;25.27;21.97;;;;;;;18.19;69.69;101057.00;5033208;28;20481;-73
2021/06/06 20:33:19;;;;;;;27.30;21.40;;;;;;;18.13;70.21;101059.53;5040196;28;20468;-73
2021/06/06 20:35:46;;;;;;;26.03;21.87;;;;;;;18.26;69.60;101067.97;5040901;28;20461;-74
2021/06/06 20:38:15;;;;;;;26.27;21.73;;;;;;;18.32;69.40;101066.47;5041658;28;20458;-74
2021/06/06 20:40:42;;;;;;;22.87;20.37;;;;;;;18.25;69.64;101069.00;5038842;28;20461;-75
2021/06/06 20:43:09;;;;;;;25.20;21.87;;;;;;;18.16;69.61;101070.03;5022306;28;20478;-74
2021/06/06 20:45:38;;;;;;;26.43;21.50;;;;;;;18.27;69.44;101064.25;5030288;28;20469;-74
2021/06/06 20:48:07;;;;;;;24.30;21.00;;;;;;;18.21;69.51;101068.50;5041780;28;20468;-74
2021/06/06 20:50:35;;;;;;;25.37;22.67;;;;;;;18.32;69.46;101063.75;5039994;28;21077;-74
2021/06/06 20:53:01;;;;;;;25.93;22.93;;;;;;;18.18;69.61;101065.28;5041757;28;20531;-74
2021/06/06 20:55:28;;;;;;;24.00;21.37;;;;;;;18.18;69.70;101059.88;5035256;28;20450;-73
2021/06/06 20:57:55;;;;;;;25.07;20.90;;;;;;;18.18;69.48;101058.00;5041594;28;20473;-73
2021/06/06 21:00:24;;;;;;;26.90;21.57;;;;;;;17.93;70.15;101064.44;5041205;28;20484;-72
2021/06/06 21:02:52;;;;;;;26.60;22.23;;;;;;;17.87;70.25;101055.97;5041569;28;20477;-73
2021/06/06 21:05:18;;;;;;;25.10;21.37;;;;;;;17.82;70.61;101054.78;5039648;28;20915;-73
2021/06/06 21:07:45;;;;;;;23.60;20.70;;;;;;;17.56;71.00;101052.22;5040819;28;20947;-73
2021/06/06 21:10:12;;;;;;;25.87;22.33;;;;;;;17.52;71.11;101051.72;5040756;28;20488;-73
2021/06/06 21:12:45;;;;;;;25.23;20.73;;;;;;;17.56;70.96;101052.22;5027141;28;20438;-73
2021/06/06 21:15:13;;;;;;;26.13;21.87;;;;;;;17.74;70.74;101054.75;5040792;28;20464;-73
2021/06/06 21:17:39;;;;;;;26.83;22.90;;;;;;;17.60;71.07;101059.84;5041075;28;20965;-73
2021/06/06 21:20:09;;;;;;;26.40;21.97;;;;;;;17.63;71.08;101047.81;5040133;28;20446;-73
2021/06/06 21:22:35;;;;;;;26.20;21.70;;;;;;;17.82;70.43;101061.03;5041419;28;20470;-72
2021/06/06 21:25:01;;;;;;;24.73;21.80;;;;;;;17.91;69.99;101051.06;5039947;28;20449;-72
2021/06/06 21:27:27;;;;;;;31.07;22.07;;;;;;;17.90;70.19;101049.41;5034181;28;20501;-73
2021/06/06 21:29:53;;;;;;;24.20;20.53;;;;;;;17.89;70.11;101053.13;5040647;28;20505;-73
2021/06/06 21:32:20;;;;;;;24.50;21.90;;;;;;;17.91;69.81;101061.06;5040473;28;20470;-73
2021/06/06 21:34:46;;;;;;;27.40;23.00;;;;;;;17.63;70.58;101053.22;5040494;28;20473;-73
2021/06/06 21:37:14;;;;;;;27.90;21.63;;;;;;;17.76;70.33;101058.13;5040894;28;20482;-72
2021/06/06 21:39:40;;;;;;;29.70;22.30;;;;;;;17.63;70.68;101055.94;5040641;28;20489;-72
2021/06/06 21:42:07;;;;;;;26.67;21.40;;;;;;;17.76;70.71;101059.00;5039066;28;21058;-72
2021/06/06 21:44:34;;;;;;;26.67;22.53;;;;;;;17.65;70.82;101057.47;5040458;28;20806;-72
2021/06/06 21:47:00;;;;;;;26.47;23.57;;;;;;;17.71;70.58;101055.97;5040234;28;20496;-73
2021/06/06 21:49:27;;;;;;;24.93;22.17;;;;;;;17.69;70.81;101061.53;5040130;28;20453;-72
2021/06/06 21:51:53;;;;;;;28.50;23.23;;;;;;;17.70;70.69;101060.50;5039781;28;20596;-73
2021/06/06 21:54:20;;;;;;;26.97;22.93;;;;;;;17.79;70.29;101057.81;5039755;28;20472;-72
2021/06/06 21:56:47;;;;;;;27.70;23.50;;;;;;;17.56;70.82;101058.47;5028447;28;20509;-71
2021/06/06 21:59:13;;;;;;;26.10;22.77;;;;;;;17.51;71.17;101055.41;5029254;28;20465;-72
2021/06/06 22:01:41;;;;;;;28.23;23.20;;;;;;;17.45;71.13;101058.78;5039800;28;20917;-72
2021/06/06 22:04:07;;;;;;;27.57;21.73;;;;;;;17.36;71.76;101060.63;5040376;28;20457;-72
2021/06/06 22:06:36;;;;;;;28.40;22.67;;;;;;;17.45;71.60;101062.34;5039513;28;20461;-72
2021/06/06 22:09:07;;;;;;;23.57;21.03;;;;;;;17.61;70.79;101058.81;5040397;28;20490;-79
2021/06/06 22:11:36;;;;;;;25.33;22.50;;;;;;;17.58;70.66;101053.72;5038556;28;20497;-79
2021/06/06 22:14:02;;;;;;;25.13;22.43;;;;;;;17.45;71.06;101059.63;5041106;28;20450;-80
2021/06/06 22:16:29;;;;;;;28.33;24.13;;;;;;;17.55;70.91;101058.63;5039866;28;20491;-80
2021/06/06 22:18:56;;;;;;;25.80;20.80;;;;;;;17.52;70.77;101050.88;5039448;28;20454;-79
2021/06/06 22:22:00;;;;;;;27.33;21.80;;;;;;;17.53;70.97;101055.25;5028950;28;20520;-79
2021/06/06 22:25:04;;;;;;;24.90;21.73;;;;;;;17.49;70.89;101060.97;5041518;28;20450;-80
2021/06/06 22:28:07;;;;;;;25.83;21.90;;;;;;;17.49;71.05;101057.44;5041128;28;20564;-80
2021/06/06 22:31:11;;;;;;;29.60;22.33;;;;;;;17.53;70.89;101056.09;5028592;28;20529;-78
2021/06/06 22:34:15;;;;;;;25.53;21.13;;;;;;;17.45;71.26;101050.69;5023701;28;20434;-79
2021/06/06 22:37:18;;;;;;;24.73;21.97;;;;;;;17.29;71.43;101056.88;5021215;28;20470;-79
2021/06/06 22:40:22;;;;;;;28.10;22.80;;;;;;;17.25;71.49;101060.94;5036970;28;20510;-80
2021/06/06 22:43:25;;;;;;;26.80;22.23;;;;;;;17.43;71.12;101058.09;5045770;28;20508;-80
2021/06/06 22:46:29;;;;;;;22.40;19.60;;;;;;;17.39;71.10;101057.56;5044577;28;20496;-80
2021/06/06 22:49:32;;;;;;;26.60;21.83;;;;;;;17.29;71.35;101056.88;5045423;28;20461;-79
2021/06/06 22:52:42;;;;;;;23.33;20.60;;;;;;;17.21;71.75;101049.59;5044819;28;20548;-81
2021/06/06 22:55:46;;;;;;;25.87;20.60;;;;;;;17.34;71.34;101059.94;5044256;28;20510;-80
2021/06/06 22:58:50;;;;;;;23.60;20.47;;;;;;;17.42;71.16;101049.13;5045855;28;20500;-79
2021/06/06 23:01:54;;;;;;;23.50;20.43;;;;;;;17.27;71.59;101054.38;5034414;28;20481;-79
2021/06/06 23:04:57;;;;;;;24.37;21.73;;;;;;;17.21;71.69;101048.75;5030465;28;20478;-80
2021/06/06 23:08:01;;;;;;;25.20;21.70;;;;;;;17.38;71.26;101058.59;5044262;28;20477;-79
2021/06/06 23:11:05;;;;;;;24.07;21.43;;;;;;;17.47;70.90;101060.31;5044572;28;20480;-79
2021/06/06 23:14:08;;;;;;;26.07;21.70;;;;;;;17.30;71.37;101053.16;5045737;28;20557;-79
2021/06/06 23:16:51;;;;;;;26.60;23.90;;;;;;;17.46;71.03;101055.94;5044541;28;20473;-80
2021/06/06 23:19:19;;;;;;;26.00;21.43;;;;;;;17.49;70.77;101052.03;5042698;28;20980;-79
2021/06/06 23:21:48;;;;;;;26.17;21.67;;;;;;;17.52;71.03;101053.56;5044644;28;20474;-80
2021/06/06 23:24:14;;;;;;;22.87;19.97;;;;;;;17.60;70.72;101051.72;5044848;28;20580;-79
2021/06/06 23:26:41;;;;;;;24.43;21.87;;;;;;;17.42;71.14;101051.00;5043719;28;20628;-80
2021/06/06 23:29:07;;;;;;;23.83;21.03;;;;;;;17.53;70.90;101055.25;5044901;28;20488;-79
2021/06/06 23:31:34;;;;;;;25.93;22.13;;;;;;;17.48;71.22;101051.19;5039403;28;20485;-79
2021/06/06 23:34:02;;;;;;;25.63;22.07;;;;;;;17.32;71.33;101051.13;5041351;28;20512;-79
2021/06/06 23:36:28;;;;;;;25.40;21.47;;;;;;;17.42;71.38;101051.84;5043736;28;20978;-80
2021/06/06 23:38:55;;;;;;;24.90;21.67;;;;;;;17.18;72.11;101049.09;5044196;28;20453;-79
2021/06/06 23:41:21;;;;;;;25.57;23.00;;;;;;;16.97;72.62;101052.22;5043975;28;20509;-80
2021/06/06 23:43:47;;;;;;;29.37;23.97;;;;;;;17.13;71.99;101049.56;5044925;28;20453;-81
2021/06/06 23:46:14;;;;;;;27.40;24.50;;;;;;;17.23;71.87;101047.56;5044016;28;20775;-79
2021/06/06 23:48:40;;;;;;;25.80;22.87;;;;;;;17.27;71.62;101053.50;5043729;28;20487;-79
2021/06/06 23:51:07;;;;;;;28.57;23.00;;;;;;;17.26;71.80;101049.13;5043433;28;20564;-79
2021/06/06 23:53:35;;;;;;;26.43;22.53;;;;;;;17.36;71.42;101041.72;5045091;28;20449;-79
2021/06/06 23:56:02;;;;;;;27.90;24.30;;;;;;;17.01;72.57;101043.66;5043360;28;20568;-79
2021/06/06 23:58:28;;;;;;;26.33;23.57;;;;;;;17.20;71.75;101042.50;5044288;28;20962;-80
